SAS1717 EFHK-EKCH
Flight info
| Callsign | SAS1717 |
|---|---|
| Flight time | 1h 33m |
| Altitude | 38000 |
| Route | NUNTO Y367 OLPED DCT OBEVI DCT NISIX DCT INGIS DCT TOKSI N872 ERNOV |
| Aircraft | B738/M-SDE2E3FGHIRWXY/LB1 |
Departure
| Time | 2026-05-06 18:16 |
|---|---|
| Airport | Helsinki Vantaa Airport (EFHK) |
Arrival
| Time | 2026-05-06 19:49 |
|---|---|
| Airport | Copenhagen Kastrup Airport (EKCH) |
| Time | Latitude | Longitude | Altitude | Speed | Heading |
|---|---|---|---|---|---|
| 2026-05-06 17:44 | 60.31903 | 24.96966 | 160 ft | 0 kts | 242° |
| 2026-05-06 18:07 | 60.31912 | 24.97000 | 160 ft | 4 kts | 249° |
| 2026-05-06 18:07 | 60.31919 | 24.97052 | 160 ft | 4 kts | 269° |
| 2026-05-06 18:07 | 60.31914 | 24.97100 | 160 ft | 4 kts | 316° |
| 2026-05-06 18:08 | 60.31907 | 24.97111 | 160 ft | 1 kts | 333° |
| 2026-05-06 18:10 | 60.31908 | 24.97111 | 160 ft | 0 kts | 333° |
| 2026-05-06 18:10 | 60.31929 | 24.97089 | 160 ft | 8 kts | 333° |
| 2026-05-06 18:10 | 60.32001 | 24.97013 | 160 ft | 16 kts | 332° |
| 2026-05-06 18:11 | 60.32104 | 24.96898 | 160 ft | 17 kts | 330° |
| 2026-05-06 18:11 | 60.32205 | 24.96779 | 160 ft | 16 kts | 330° |
| 2026-05-06 18:11 | 60.32301 | 24.96670 | 160 ft | 13 kts | 330° |
| 2026-05-06 18:11 | 60.32350 | 24.96613 | 161 ft | 7 kts | 329° |
| 2026-05-06 18:12 | 60.32406 | 24.96546 | 161 ft | 15 kts | 329° |
| 2026-05-06 18:12 | 60.32534 | 24.96392 | 160 ft | 23 kts | 330° |
| 2026-05-06 18:12 | 60.32669 | 24.96231 | 160 ft | 22 kts | 329° |
| 2026-05-06 18:12 | 60.32803 | 24.96071 | 160 ft | 22 kts | 330° |
| 2026-05-06 18:13 | 60.32933 | 24.95922 | 160 ft | 21 kts | 329° |
| 2026-05-06 18:13 | 60.33057 | 24.95774 | 160 ft | 21 kts | 327° |
| 2026-05-06 18:13 | 60.33165 | 24.95592 | 160 ft | 20 kts | 315° |
| 2026-05-06 18:13 | 60.33188 | 24.95351 | 160 ft | 19 kts | 233° |
| 2026-05-06 18:14 | 60.33113 | 24.95139 | 160 ft | 18 kts | 250° |
| 2026-05-06 18:14 | 60.33111 | 24.94888 | 160 ft | 18 kts | 273° |
| 2026-05-06 18:14 | 60.33117 | 24.94644 | 162 ft | 17 kts | 272° |
| 2026-05-06 18:14 | 60.33117 | 24.94435 | 171 ft | 12 kts | 259° |
| 2026-05-06 18:15 | 60.33084 | 24.94322 | 174 ft | 9 kts | 229° |
| 2026-05-06 18:15 | 60.33028 | 24.94200 | 176 ft | 26 kts | 227° |
| 2026-05-06 18:15 | 60.32709 | 24.93498 | 171 ft | 108 kts | 227° |
| 2026-05-06 18:15 | 60.32054 | 24.92053 | 336 ft | 158 kts | 227° |
| 2026-05-06 18:16 | 60.31261 | 24.90413 | 1143 ft | 169 kts | 225° |
| 2026-05-06 18:16 | 60.30401 | 24.88645 | 1852 ft | 190 kts | 229° |
| 2026-05-06 18:16 | 60.29709 | 24.86189 | 2040 ft | 216 kts | 261° |
| 2026-05-06 18:16 | 60.29844 | 24.83115 | 2464 ft | 227 kts | 285° |
| 2026-05-06 18:17 | 60.30230 | 24.79935 | 2884 ft | 243 kts | 281° |
| 2026-05-06 18:17 | 60.30121 | 24.76480 | 3447 ft | 256 kts | 254° |
| 2026-05-06 18:17 | 60.29503 | 24.73080 | 4331 ft | 259 kts | 249° |
| 2026-05-06 18:17 | 60.28803 | 24.69726 | 5246 ft | 261 kts | 248° |
| 2026-05-06 18:18 | 60.28088 | 24.66339 | 6129 ft | 264 kts | 248° |
| 2026-05-06 18:18 | 60.27372 | 24.62921 | 6983 ft | 266 kts | 248° |
| 2026-05-06 18:18 | 60.26660 | 24.59475 | 7830 ft | 268 kts | 248° |
| 2026-05-06 18:18 | 60.25945 | 24.55995 | 8670 ft | 270 kts | 248° |
| 2026-05-06 18:19 | 60.25224 | 24.52487 | 9556 ft | 272 kts | 249° |
| 2026-05-06 18:19 | 60.24498 | 24.48959 | 10329 ft | 275 kts | 248° |
| 2026-05-06 18:19 | 60.23662 | 24.45400 | 10785 ft | 292 kts | 244° |
| 2026-05-06 18:19 | 60.22742 | 24.41584 | 10980 ft | 314 kts | 248° |
| 2026-05-06 18:20 | 60.21862 | 24.37396 | 11165 ft | 336 kts | 249° |
| 2026-05-06 18:20 | 60.20957 | 24.32933 | 11554 ft | 349 kts | 249° |
| 2026-05-06 18:20 | 60.20035 | 24.28379 | 12259 ft | 353 kts | 249° |
| 2026-05-06 18:20 | 60.19103 | 24.23818 | 13101 ft | 353 kts | 249° |
| 2026-05-06 18:21 | 60.18163 | 24.19256 | 13892 ft | 354 kts | 249° |
| 2026-05-06 18:21 | 60.17211 | 24.14676 | 14579 ft | 356 kts | 249° |
| 2026-05-06 18:21 | 60.16255 | 24.10103 | 15298 ft | 356 kts | 248° |
| 2026-05-06 18:21 | 60.15289 | 24.05505 | 16004 ft | 357 kts | 248° |
| 2026-05-06 18:22 | 60.14320 | 24.00910 | 16705 ft | 359 kts | 248° |
| 2026-05-06 18:22 | 60.13343 | 23.96293 | 17417 ft | 360 kts | 248° |
| 2026-05-06 18:22 | 60.12363 | 23.91669 | 18107 ft | 361 kts | 248° |
| 2026-05-06 18:22 | 60.11374 | 23.87020 | 18716 ft | 363 kts | 248° |
| 2026-05-06 18:23 | 60.10381 | 23.82358 | 19278 ft | 364 kts | 248° |
| 2026-05-06 18:23 | 60.09383 | 23.77685 | 19835 ft | 366 kts | 248° |
| 2026-05-06 18:23 | 60.08377 | 23.72990 | 20358 ft | 367 kts | 247° |
| 2026-05-06 18:23 | 60.07365 | 23.68272 | 20789 ft | 372 kts | 247° |
| 2026-05-06 18:24 | 60.06350 | 23.63553 | 21277 ft | 375 kts | 246° |
| 2026-05-06 18:24 | 60.05316 | 23.58759 | 21825 ft | 375 kts | 246° |
| 2026-05-06 18:24 | 60.04280 | 23.53963 | 22363 ft | 377 kts | 246° |
| 2026-05-06 18:24 | 60.03235 | 23.49138 | 22861 ft | 379 kts | 246° |
| 2026-05-06 18:25 | 60.02183 | 23.44295 | 23339 ft | 381 kts | 246° |
| 2026-05-06 18:25 | 60.01124 | 23.39429 | 23771 ft | 383 kts | 246° |
| 2026-05-06 18:25 | 60.00059 | 23.34545 | 24165 ft | 384 kts | 246° |
| 2026-05-06 18:25 | 59.98988 | 23.29646 | 24566 ft | 386 kts | 246° |
| 2026-05-06 18:26 | 59.97911 | 23.24729 | 24929 ft | 388 kts | 246° |
| 2026-05-06 18:26 | 59.96826 | 23.19793 | 25293 ft | 389 kts | 246° |
| 2026-05-06 18:26 | 59.95734 | 23.14829 | 25647 ft | 391 kts | 245° |
| 2026-05-06 18:26 | 59.94633 | 23.09842 | 25996 ft | 393 kts | 245° |
| 2026-05-06 18:27 | 59.93527 | 23.04843 | 26379 ft | 395 kts | 245° |
| 2026-05-06 18:27 | 59.92417 | 22.99837 | 26752 ft | 395 kts | 245° |
| 2026-05-06 18:27 | 59.91302 | 22.94821 | 27071 ft | 397 kts | 245° |
| 2026-05-06 18:27 | 59.90176 | 22.89766 | 27250 ft | 402 kts | 245° |
| 2026-05-06 18:28 | 59.89035 | 22.84658 | 27499 ft | 405 kts | 245° |
| 2026-05-06 18:28 | 59.87888 | 22.79531 | 27831 ft | 406 kts | 245° |
| 2026-05-06 18:28 | 59.86731 | 22.74378 | 28188 ft | 406 kts | 245° |
| 2026-05-06 18:28 | 59.85582 | 22.69266 | 28607 ft | 405 kts | 245° |
| 2026-05-06 18:29 | 59.84431 | 22.64162 | 29087 ft | 403 kts | 245° |
| 2026-05-06 18:29 | 59.83287 | 22.59100 | 29556 ft | 400 kts | 245° |
| 2026-05-06 18:29 | 59.82147 | 22.54066 | 29977 ft | 399 kts | 244° |
| 2026-05-06 18:29 | 59.81005 | 22.49040 | 30331 ft | 398 kts | 244° |
| 2026-05-06 18:30 | 59.79867 | 22.44042 | 30683 ft | 397 kts | 244° |
| 2026-05-06 18:30 | 59.78744 | 22.39119 | 31048 ft | 395 kts | 244° |
| 2026-05-06 18:30 | 59.77595 | 22.34097 | 31382 ft | 394 kts | 244° |
| 2026-05-06 18:30 | 59.76475 | 22.29210 | 31710 ft | 394 kts | 243° |
| 2026-05-06 18:31 | 59.75340 | 22.24269 | 32044 ft | 393 kts | 243° |
| 2026-05-06 18:31 | 59.74210 | 22.19363 | 32386 ft | 391 kts | 243° |
| 2026-05-06 18:31 | 59.73076 | 22.14451 | 32751 ft | 390 kts | 243° |
| 2026-05-06 18:31 | 59.71955 | 22.09604 | 33268 ft | 384 kts | 242° |
| 2026-05-06 18:32 | 59.70848 | 22.04822 | 33774 ft | 380 kts | 242° |
| 2026-05-06 18:32 | 59.69744 | 22.00071 | 34024 ft | 380 kts | 242° |
| 2026-05-06 18:32 | 59.68635 | 21.95312 | 34182 ft | 382 kts | 242° |
| 2026-05-06 18:32 | 59.67516 | 21.90525 | 34337 ft | 384 kts | 242° |
| 2026-05-06 18:33 | 59.66395 | 21.85734 | 34529 ft | 384 kts | 242° |
| 2026-05-06 18:33 | 59.65268 | 21.80927 | 34693 ft | 386 kts | 242° |
| 2026-05-06 18:33 | 59.64138 | 21.76119 | 34855 ft | 387 kts | 242° |
| 2026-05-06 18:33 | 59.63002 | 21.71294 | 35024 ft | 388 kts | 243° |
| 2026-05-06 18:34 | 59.61859 | 21.66456 | 35199 ft | 389 kts | 243° |
| 2026-05-06 18:34 | 59.60713 | 21.61611 | 35346 ft | 390 kts | 243° |
| 2026-05-06 18:34 | 59.59560 | 21.56747 | 35519 ft | 391 kts | 243° |
| 2026-05-06 18:34 | 59.58404 | 21.51879 | 35680 ft | 392 kts | 243° |
| 2026-05-06 18:35 | 59.57244 | 21.47009 | 35823 ft | 393 kts | 243° |
| 2026-05-06 18:35 | 59.56074 | 21.42111 | 35875 ft | 396 kts | 243° |
| 2026-05-06 18:35 | 59.53706 | 21.32222 | 36129 ft | 399 kts | 243° |
| 2026-05-06 18:36 | 59.52520 | 21.27285 | 36343 ft | 399 kts | 243° |
| 2026-05-06 18:36 | 59.51329 | 21.22341 | 36500 ft | 400 kts | 243° |
| 2026-05-06 18:36 | 59.50149 | 21.17453 | 36670 ft | 400 kts | 243° |
| 2026-05-06 18:36 | 59.48952 | 21.12507 | 36832 ft | 401 kts | 243° |
| 2026-05-06 18:37 | 59.47750 | 21.07551 | 36958 ft | 402 kts | 243° |
| 2026-05-06 18:37 | 59.46935 | 21.04198 | 37035 ft | 403 kts | 243° |
| 2026-05-06 18:37 | 59.45325 | 20.97587 | 37189 ft | 405 kts | 243° |
| 2026-05-06 18:37 | 59.44152 | 20.92779 | 37349 ft | 405 kts | 244° |
| 2026-05-06 18:38 | 59.42931 | 20.87789 | 37495 ft | 406 kts | 244° |
| 2026-05-06 18:38 | 59.41702 | 20.82790 | 37615 ft | 407 kts | 243° |
| 2026-05-06 18:38 | 59.40397 | 20.77857 | 37747 ft | 407 kts | 241° |
| 2026-05-06 18:38 | 59.39027 | 20.72986 | 37885 ft | 408 kts | 240° |
| 2026-05-06 18:39 | 59.36234 | 20.63289 | 38018 ft | 410 kts | 240° |
| 2026-05-06 18:40 | 59.32022 | 20.48635 | 38020 ft | 411 kts | 240° |
| 2026-05-06 18:40 | 59.29226 | 20.38872 | 38024 ft | 411 kts | 240° |
| 2026-05-06 18:41 | 59.26426 | 20.29115 | 38024 ft | 412 kts | 241° |
| 2026-05-06 18:41 | 59.24092 | 20.21009 | 38024 ft | 411 kts | 240° |
| 2026-05-06 18:42 | 59.21283 | 20.11291 | 38023 ft | 411 kts | 240° |
| 2026-05-06 18:42 | 59.18467 | 20.01591 | 38014 ft | 410 kts | 240° |
| 2026-05-06 18:43 | 59.15656 | 19.91951 | 38014 ft | 409 kts | 240° |
| 2026-05-06 18:43 | 59.12840 | 19.82331 | 38022 ft | 408 kts | 240° |
| 2026-05-06 18:44 | 59.10020 | 19.72742 | 38025 ft | 408 kts | 240° |
| 2026-05-06 18:44 | 59.07194 | 19.63169 | 38021 ft | 408 kts | 240° |
| 2026-05-06 18:45 | 59.04362 | 19.53617 | 38022 ft | 408 kts | 240° |
| 2026-05-06 18:45 | 59.01524 | 19.44080 | 38036 ft | 408 kts | 240° |
| 2026-05-06 18:46 | 58.98673 | 19.34544 | 38018 ft | 408 kts | 240° |
| 2026-05-06 18:46 | 58.95819 | 19.25036 | 38017 ft | 409 kts | 240° |
| 2026-05-06 18:47 | 58.92952 | 19.15520 | 38018 ft | 409 kts | 240° |
| 2026-05-06 18:47 | 58.90072 | 19.06003 | 38018 ft | 410 kts | 240° |
| 2026-05-06 18:48 | 58.87183 | 18.96497 | 38014 ft | 411 kts | 239° |
| 2026-05-06 18:48 | 58.84280 | 18.86978 | 38014 ft | 411 kts | 239° |
| 2026-05-06 18:49 | 58.81384 | 18.77525 | 38014 ft | 412 kts | 239° |
| 2026-05-06 18:49 | 58.78461 | 18.68024 | 38006 ft | 412 kts | 239° |
| 2026-05-06 18:50 | 58.75532 | 18.58537 | 38024 ft | 412 kts | 239° |
| 2026-05-06 18:50 | 58.72498 | 18.49160 | 38008 ft | 412 kts | 235° |
| 2026-05-06 18:51 | 58.69114 | 18.40252 | 38002 ft | 413 kts | 234° |
| 2026-05-06 18:51 | 58.65709 | 18.31372 | 38002 ft | 412 kts | 234° |
| 2026-05-06 18:52 | 58.62302 | 18.22512 | 38000 ft | 412 kts | 234° |
| 2026-05-06 18:52 | 58.58893 | 18.13669 | 37980 ft | 412 kts | 234° |
| 2026-05-06 18:53 | 58.55483 | 18.04856 | 37994 ft | 412 kts | 234° |
| 2026-05-06 18:53 | 58.52066 | 17.96056 | 38000 ft | 412 kts | 234° |
| 2026-05-06 18:54 | 58.48645 | 17.87278 | 38003 ft | 412 kts | 233° |
| 2026-05-06 18:54 | 58.45216 | 17.78513 | 37994 ft | 412 kts | 233° |
| 2026-05-06 18:55 | 58.41779 | 17.69759 | 37995 ft | 412 kts | 233° |
| 2026-05-06 18:55 | 58.38331 | 17.61011 | 37973 ft | 413 kts | 233° |
| 2026-05-06 18:56 | 58.34894 | 17.52322 | 37996 ft | 413 kts | 233° |
| 2026-05-06 18:56 | 58.31434 | 17.43606 | 37994 ft | 413 kts | 233° |
| 2026-05-06 18:57 | 58.27963 | 17.34897 | 37999 ft | 413 kts | 233° |
| 2026-05-06 18:57 | 58.24484 | 17.26197 | 38001 ft | 413 kts | 233° |
| 2026-05-06 18:58 | 58.20998 | 17.17513 | 38000 ft | 414 kts | 233° |
| 2026-05-06 18:58 | 58.17530 | 17.08902 | 37993 ft | 414 kts | 233° |
| 2026-05-06 18:59 | 58.14027 | 17.00240 | 37990 ft | 414 kts | 233° |
| 2026-05-06 18:59 | 58.10527 | 16.91614 | 37997 ft | 414 kts | 233° |
| 2026-05-06 19:00 | 58.07012 | 16.82983 | 37994 ft | 414 kts | 233° |
| 2026-05-06 19:00 | 58.03491 | 16.74371 | 38015 ft | 415 kts | 233° |
| 2026-05-06 19:01 | 57.99952 | 16.65744 | 38004 ft | 416 kts | 233° |
| 2026-05-06 19:01 | 57.96404 | 16.57126 | 37995 ft | 416 kts | 233° |
| 2026-05-06 19:02 | 57.92854 | 16.48533 | 37988 ft | 416 kts | 232° |
| 2026-05-06 19:02 | 57.89299 | 16.39962 | 37992 ft | 416 kts | 232° |
| 2026-05-06 19:03 | 57.85733 | 16.31394 | 37993 ft | 416 kts | 232° |
| 2026-05-06 19:03 | 57.82165 | 16.22853 | 37995 ft | 416 kts | 232° |
| 2026-05-06 19:04 | 57.78592 | 16.14329 | 37992 ft | 416 kts | 232° |
| 2026-05-06 19:04 | 57.75011 | 16.05816 | 37992 ft | 416 kts | 232° |
| 2026-05-06 19:05 | 57.71428 | 15.97331 | 37992 ft | 416 kts | 232° |
| 2026-05-06 19:05 | 57.67835 | 15.88850 | 38005 ft | 416 kts | 232° |
| 2026-05-06 19:06 | 57.64261 | 15.80446 | 37995 ft | 416 kts | 232° |
| 2026-05-06 19:06 | 57.60654 | 15.71994 | 37987 ft | 416 kts | 232° |
| 2026-05-06 19:07 | 57.57044 | 15.63563 | 37989 ft | 416 kts | 232° |
| 2026-05-06 19:07 | 57.53432 | 15.55159 | 37988 ft | 416 kts | 232° |
| 2026-05-06 19:08 | 57.49817 | 15.46777 | 37971 ft | 415 kts | 232° |
| 2026-05-06 19:08 | 57.46194 | 15.38406 | 37985 ft | 415 kts | 232° |
| 2026-05-06 19:09 | 57.42568 | 15.30057 | 37985 ft | 415 kts | 232° |
| 2026-05-06 19:09 | 57.38938 | 15.21727 | 37980 ft | 416 kts | 231° |
| 2026-05-06 19:10 | 57.35293 | 15.13394 | 37982 ft | 416 kts | 231° |
| 2026-05-06 19:10 | 57.31642 | 15.05074 | 38003 ft | 416 kts | 231° |
| 2026-05-06 19:11 | 57.27977 | 14.96753 | 37978 ft | 417 kts | 231° |
| 2026-05-06 19:11 | 57.24306 | 14.88448 | 37977 ft | 417 kts | 231° |
| 2026-05-06 19:12 | 57.20618 | 14.80132 | 37554 ft | 424 kts | 231° |
| 2026-05-06 19:12 | 57.18754 | 14.75939 | 37059 ft | 422 kts | 231° |
| 2026-05-06 19:12 | 57.16900 | 14.71778 | 36538 ft | 419 kts | 231° |
| 2026-05-06 19:12 | 57.15051 | 14.67634 | 35949 ft | 418 kts | 231° |
| 2026-05-06 19:13 | 57.13233 | 14.63569 | 35349 ft | 417 kts | 231° |
| 2026-05-06 19:13 | 57.11387 | 14.59446 | 34738 ft | 416 kts | 231° |
| 2026-05-06 19:13 | 57.09550 | 14.55351 | 34121 ft | 415 kts | 230° |
| 2026-05-06 19:13 | 57.07713 | 14.51261 | 33518 ft | 412 kts | 230° |
| 2026-05-06 19:14 | 57.05897 | 14.47228 | 32990 ft | 408 kts | 230° |
| 2026-05-06 19:14 | 57.04096 | 14.43232 | 32500 ft | 404 kts | 230° |
| 2026-05-06 19:14 | 57.02312 | 14.39282 | 32070 ft | 399 kts | 230° |
| 2026-05-06 19:14 | 57.00542 | 14.35369 | 31616 ft | 395 kts | 230° |
| 2026-05-06 19:15 | 56.98800 | 14.31524 | 31192 ft | 391 kts | 230° |
| 2026-05-06 19:15 | 56.97069 | 14.27709 | 30763 ft | 387 kts | 230° |
| 2026-05-06 19:15 | 56.95352 | 14.23932 | 30346 ft | 384 kts | 230° |
| 2026-05-06 19:15 | 56.93649 | 14.20191 | 29936 ft | 380 kts | 230° |
| 2026-05-06 19:16 | 56.91963 | 14.16493 | 29470 ft | 376 kts | 230° |
| 2026-05-06 19:16 | 56.90296 | 14.12846 | 29032 ft | 371 kts | 230° |
| 2026-05-06 19:16 | 56.88650 | 14.09247 | 28623 ft | 366 kts | 230° |
| 2026-05-06 19:16 | 56.87021 | 14.05691 | 28203 ft | 362 kts | 230° |
| 2026-05-06 19:17 | 56.85415 | 14.02189 | 27760 ft | 359 kts | 230° |
| 2026-05-06 19:17 | 56.83819 | 13.98715 | 27358 ft | 355 kts | 231° |
| 2026-05-06 19:17 | 56.82237 | 13.95277 | 26941 ft | 352 kts | 231° |
| 2026-05-06 19:17 | 56.80665 | 13.91864 | 26530 ft | 350 kts | 231° |
| 2026-05-06 19:18 | 56.79104 | 13.88482 | 26117 ft | 347 kts | 231° |
| 2026-05-06 19:18 | 56.77555 | 13.85128 | 25720 ft | 345 kts | 231° |
| 2026-05-06 19:18 | 56.76013 | 13.81796 | 25327 ft | 343 kts | 231° |
| 2026-05-06 19:18 | 56.74481 | 13.78490 | 24934 ft | 341 kts | 231° |
| 2026-05-06 19:19 | 56.72953 | 13.75195 | 24551 ft | 340 kts | 231° |
| 2026-05-06 19:19 | 56.71427 | 13.71911 | 24163 ft | 339 kts | 231° |
| 2026-05-06 19:19 | 56.69917 | 13.68666 | 23787 ft | 342 kts | 231° |
| 2026-05-06 19:19 | 56.68338 | 13.65274 | 23360 ft | 351 kts | 231° |
| 2026-05-06 19:20 | 56.66771 | 13.61912 | 22886 ft | 353 kts | 231° |
| 2026-05-06 19:20 | 56.65166 | 13.58477 | 22445 ft | 350 kts | 231° |
| 2026-05-06 19:20 | 56.63617 | 13.55169 | 22031 ft | 347 kts | 231° |
| 2026-05-06 19:20 | 56.62038 | 13.51799 | 21634 ft | 343 kts | 231° |
| 2026-05-06 19:21 | 56.60516 | 13.48557 | 21227 ft | 341 kts | 231° |
| 2026-05-06 19:21 | 56.58986 | 13.45299 | 20841 ft | 338 kts | 231° |
| 2026-05-06 19:21 | 56.57462 | 13.42061 | 20469 ft | 336 kts | 231° |
| 2026-05-06 19:21 | 56.55947 | 13.38845 | 20080 ft | 334 kts | 231° |
| 2026-05-06 19:22 | 56.54441 | 13.35652 | 19698 ft | 332 kts | 231° |
| 2026-05-06 19:22 | 56.52940 | 13.32475 | 19319 ft | 331 kts | 231° |
| 2026-05-06 19:22 | 56.51447 | 13.29317 | 18934 ft | 329 kts | 231° |
| 2026-05-06 19:22 | 56.49959 | 13.26176 | 18559 ft | 328 kts | 231° |
| 2026-05-06 19:23 | 56.48476 | 13.23047 | 18167 ft | 327 kts | 231° |
| 2026-05-06 19:23 | 56.46997 | 13.19933 | 17751 ft | 326 kts | 231° |
| 2026-05-06 19:23 | 56.45523 | 13.16833 | 17349 ft | 324 kts | 231° |
| 2026-05-06 19:23 | 56.44056 | 13.13750 | 16963 ft | 322 kts | 231° |
| 2026-05-06 19:24 | 56.42594 | 13.10683 | 16589 ft | 320 kts | 231° |
| 2026-05-06 19:24 | 56.41142 | 13.07642 | 16215 ft | 319 kts | 231° |
| 2026-05-06 19:24 | 56.39698 | 13.04620 | 15854 ft | 317 kts | 231° |
| 2026-05-06 19:24 | 56.38262 | 13.01618 | 15496 ft | 315 kts | 231° |
| 2026-05-06 19:25 | 56.36829 | 12.98627 | 15139 ft | 314 kts | 230° |
| 2026-05-06 19:25 | 56.35403 | 12.95655 | 14787 ft | 313 kts | 230° |
| 2026-05-06 19:25 | 56.33980 | 12.92692 | 14435 ft | 312 kts | 230° |
| 2026-05-06 19:25 | 56.32563 | 12.89743 | 14085 ft | 311 kts | 230° |
| 2026-05-06 19:26 | 56.31142 | 12.86793 | 13759 ft | 311 kts | 230° |
| 2026-05-06 19:26 | 56.29725 | 12.83852 | 13366 ft | 310 kts | 230° |
| 2026-05-06 19:26 | 56.28314 | 12.80929 | 12998 ft | 309 kts | 230° |
| 2026-05-06 19:26 | 56.26926 | 12.78055 | 12645 ft | 307 kts | 230° |
| 2026-05-06 19:27 | 56.25524 | 12.75158 | 12290 ft | 306 kts | 230° |
| 2026-05-06 19:27 | 56.24131 | 12.72281 | 11924 ft | 304 kts | 230° |
| 2026-05-06 19:27 | 56.22743 | 12.69418 | 11572 ft | 303 kts | 230° |
| 2026-05-06 19:27 | 56.21368 | 12.66584 | 11366 ft | 297 kts | 230° |
| 2026-05-06 19:28 | 56.20025 | 12.63821 | 11240 ft | 289 kts | 230° |
| 2026-05-06 19:28 | 56.18717 | 12.61137 | 11110 ft | 282 kts | 230° |
| 2026-05-06 19:28 | 56.17428 | 12.58558 | 10979 ft | 274 kts | 224° |
| 2026-05-06 19:28 | 56.15800 | 12.56840 | 10821 ft | 273 kts | 200° |
| 2026-05-06 19:29 | 56.13967 | 12.55891 | 10658 ft | 278 kts | 196° |
| 2026-05-06 19:29 | 56.12063 | 12.55022 | 10471 ft | 286 kts | 195° |
| 2026-05-06 19:29 | 56.10753 | 12.54432 | 10332 ft | 289 kts | 195° |
| 2026-05-06 19:29 | 56.08798 | 12.53549 | 10115 ft | 288 kts | 195° |
| 2026-05-06 19:30 | 56.06999 | 12.52238 | 9974 ft | 281 kts | 218° |
| 2026-05-06 19:30 | 56.05648 | 12.49775 | 9990 ft | 278 kts | 233° |
| 2026-05-06 19:30 | 56.04467 | 12.47014 | 9983 ft | 280 kts | 234° |
| 2026-05-06 19:30 | 56.03301 | 12.44197 | 9978 ft | 283 kts | 234° |
| 2026-05-06 19:31 | 56.02139 | 12.41368 | 9970 ft | 282 kts | 234° |
| 2026-05-06 19:31 | 56.00984 | 12.38543 | 9960 ft | 281 kts | 235° |
| 2026-05-06 19:31 | 55.98682 | 12.32906 | 9966 ft | 280 kts | 235° |
| 2026-05-06 19:32 | 55.97533 | 12.30103 | 9973 ft | 279 kts | 235° |
| 2026-05-06 19:32 | 55.96385 | 12.27306 | 9973 ft | 280 kts | 235° |
| 2026-05-06 19:32 | 55.95232 | 12.24500 | 9963 ft | 281 kts | 235° |
| 2026-05-06 19:32 | 55.94076 | 12.21680 | 9970 ft | 282 kts | 235° |
| 2026-05-06 19:33 | 55.92916 | 12.18859 | 9972 ft | 282 kts | 234° |
| 2026-05-06 19:33 | 55.91749 | 12.16032 | 9983 ft | 284 kts | 235° |
| 2026-05-06 19:33 | 55.90573 | 12.13205 | 9984 ft | 285 kts | 235° |
| 2026-05-06 19:33 | 55.89385 | 12.10375 | 9979 ft | 286 kts | 231° |
| 2026-05-06 19:34 | 55.87829 | 12.08187 | 9969 ft | 288 kts | 205° |
| 2026-05-06 19:34 | 55.85885 | 12.07339 | 9987 ft | 290 kts | 187° |
| 2026-05-06 19:34 | 55.83875 | 12.07027 | 9983 ft | 291 kts | 185° |
| 2026-05-06 19:34 | 55.81848 | 12.06780 | 9994 ft | 291 kts | 185° |
| 2026-05-06 19:35 | 55.79825 | 12.06546 | 9984 ft | 292 kts | 185° |
| 2026-05-06 19:35 | 55.77800 | 12.06323 | 9982 ft | 292 kts | 185° |
| 2026-05-06 19:35 | 55.75772 | 12.06109 | 9985 ft | 292 kts | 185° |
| 2026-05-06 19:35 | 55.73746 | 12.05888 | 9993 ft | 291 kts | 185° |
| 2026-05-06 19:36 | 55.71728 | 12.05666 | 9993 ft | 291 kts | 185° |
| 2026-05-06 19:36 | 55.69706 | 12.05443 | 9988 ft | 290 kts | 184° |
| 2026-05-06 19:36 | 55.67695 | 12.05460 | 9978 ft | 291 kts | 169° |
| 2026-05-06 19:36 | 55.65859 | 12.06869 | 10005 ft | 290 kts | 142° |
| 2026-05-06 19:37 | 55.64561 | 12.09529 | 9975 ft | 293 kts | 117° |
| 2026-05-06 19:37 | 55.63990 | 12.13002 | 9632 ft | 299 kts | 91° |
| 2026-05-06 19:37 | 55.64217 | 12.16642 | 9306 ft | 298 kts | 77° |
| 2026-05-06 19:37 | 55.64680 | 12.20216 | 8914 ft | 297 kts | 75° |
| 2026-05-06 19:38 | 55.65170 | 12.23723 | 8529 ft | 290 kts | 75° |
| 2026-05-06 19:38 | 55.65653 | 12.27143 | 8153 ft | 283 kts | 75° |
| 2026-05-06 19:38 | 55.66127 | 12.30486 | 7782 ft | 277 kts | 75° |
| 2026-05-06 19:38 | 55.66597 | 12.33767 | 7431 ft | 274 kts | 75° |
| 2026-05-06 19:39 | 55.67063 | 12.37014 | 7078 ft | 270 kts | 75° |
| 2026-05-06 19:39 | 55.67520 | 12.40195 | 6716 ft | 264 kts | 75° |
| 2026-05-06 19:39 | 55.67968 | 12.43317 | 6365 ft | 259 kts | 75° |
| 2026-05-06 19:39 | 55.68436 | 12.46357 | 5977 ft | 253 kts | 66° |
| 2026-05-06 19:40 | 55.69415 | 12.48879 | 5617 ft | 247 kts | 47° |
| 2026-05-06 19:40 | 55.70570 | 12.51114 | 5245 ft | 244 kts | 48° |
| 2026-05-06 19:40 | 55.71699 | 12.53327 | 4886 ft | 241 kts | 49° |
| 2026-05-06 19:40 | 55.72805 | 12.55525 | 4528 ft | 238 kts | 49° |
| 2026-05-06 19:41 | 55.73896 | 12.57718 | 4151 ft | 235 kts | 50° |
| 2026-05-06 19:41 | 55.74957 | 12.59865 | 3935 ft | 228 kts | 50° |
| 2026-05-06 19:41 | 55.75996 | 12.61984 | 3678 ft | 227 kts | 51° |
| 2026-05-06 19:41 | 55.77028 | 12.64096 | 3435 ft | 226 kts | 51° |
| 2026-05-06 19:42 | 55.78057 | 12.66210 | 3185 ft | 225 kts | 51° |
| 2026-05-06 19:42 | 55.79074 | 12.68301 | 3037 ft | 222 kts | 51° |
| 2026-05-06 19:42 | 55.80085 | 12.70386 | 2997 ft | 223 kts | 51° |
| 2026-05-06 19:42 | 55.81098 | 12.72476 | 2991 ft | 223 kts | 51° |
| 2026-05-06 19:43 | 55.82108 | 12.74563 | 2988 ft | 223 kts | 51° |
| 2026-05-06 19:43 | 55.83114 | 12.76645 | 2980 ft | 220 kts | 51° |
| 2026-05-06 19:43 | 55.83850 | 12.78897 | 2967 ft | 205 kts | 81° |
| 2026-05-06 19:43 | 55.83735 | 12.81322 | 2994 ft | 197 kts | 111° |
| 2026-05-06 19:44 | 55.83195 | 12.83562 | 2992 ft | 197 kts | 114° |
| 2026-05-06 19:44 | 55.82629 | 12.85721 | 3009 ft | 193 kts | 117° |
| 2026-05-06 19:44 | 55.81733 | 12.87480 | 2987 ft | 192 kts | 152° |
| 2026-05-06 19:44 | 55.80419 | 12.87879 | 3001 ft | 202 kts | 184° |
| 2026-05-06 19:45 | 55.79018 | 12.87529 | 2999 ft | 205 kts | 185° |
| 2026-05-06 19:45 | 55.77606 | 12.87192 | 2985 ft | 204 kts | 185° |
| 2026-05-06 19:45 | 55.76206 | 12.86861 | 2975 ft | 203 kts | 185° |
| 2026-05-06 19:45 | 55.74895 | 12.86059 | 2966 ft | 200 kts | 218° |
| 2026-05-06 19:46 | 55.73959 | 12.84289 | 2974 ft | 194 kts | 221° |
| 2026-05-06 19:46 | 55.72914 | 12.82841 | 2814 ft | 190 kts | 214° |
| 2026-05-06 19:46 | 55.71910 | 12.81318 | 2566 ft | 189 kts | 220° |
| 2026-05-06 19:46 | 55.70935 | 12.79769 | 2300 ft | 187 kts | 219° |
| 2026-05-06 19:47 | 55.69975 | 12.78274 | 2039 ft | 184 kts | 218° |
| 2026-05-06 19:47 | 55.69017 | 12.76790 | 1784 ft | 181 kts | 218° |
| 2026-05-06 19:47 | 55.68080 | 12.75340 | 1529 ft | 176 kts | 218° |
| 2026-05-06 19:47 | 55.67187 | 12.73956 | 1286 ft | 165 kts | 218° |
| 2026-05-06 19:48 | 55.66333 | 12.72634 | 1069 ft | 162 kts | 218° |
| 2026-05-06 19:48 | 55.65493 | 12.71333 | 843 ft | 157 kts | 218° |
| 2026-05-06 19:48 | 55.64702 | 12.70107 | 634 ft | 147 kts | 217° |
| 2026-05-06 19:48 | 55.63957 | 12.68953 | 418 ft | 143 kts | 218° |
| 2026-05-06 19:49 | 55.63192 | 12.67768 | 244 ft | 148 kts | 218° |
| 2026-05-06 19:49 | 55.62418 | 12.66570 | 43 ft | 148 kts | 219° |
| 2026-05-06 19:49 | 55.61709 | 12.65471 | 24 ft | 116 kts | 221° |
| 2026-05-06 19:49 | 55.61372 | 12.64942 | 27 ft | 39 kts | 224° |
| 2026-05-06 19:50 | 55.61248 | 12.64606 | 23 ft | 29 kts | 250° |
| 2026-05-06 19:50 | 55.61193 | 12.64289 | 23 ft | 24 kts | 258° |
| 2026-05-06 19:50 | 55.61263 | 12.64111 | 23 ft | 19 kts | 0° |
| 2026-05-06 19:50 | 55.61376 | 12.64215 | 23 ft | 18 kts | 33° |
| 2026-05-06 19:51 | 55.61479 | 12.64336 | 24 ft | 18 kts | 33° |
| 2026-05-06 19:51 | 55.61579 | 12.64452 | 23 ft | 17 kts | 33° |
| 2026-05-06 19:51 | 55.61678 | 12.64556 | 23 ft | 16 kts | 18° |
| 2026-05-06 19:51 | 55.61786 | 12.64545 | 26 ft | 16 kts | 349° |
| 2026-05-06 19:52 | 55.61891 | 12.64509 | 23 ft | 15 kts | 349° |
| 2026-05-06 19:52 | 55.61991 | 12.64475 | 23 ft | 14 kts | 349° |
| 2026-05-06 19:52 | 55.62084 | 12.64443 | 23 ft | 9 kts | 349° |
| 2026-05-06 19:52 | 55.62103 | 12.64437 | 24 ft | 0 kts | 350° |
| 2026-05-06 19:53 | 55.62128 | 12.64429 | 22 ft | 11 kts | 350° |
| 2026-05-06 19:53 | 55.62235 | 12.64398 | 21 ft | 18 kts | 354° |
| 2026-05-06 19:54 | 55.62353 | 12.64429 | 22 ft | 17 kts | 15° |
| 2026-05-06 19:54 | 55.62463 | 12.64478 | 23 ft | 15 kts | 8° |
| 2026-05-06 19:54 | 55.62544 | 12.64499 | 23 ft | 10 kts | 14° |
| 2026-05-06 19:54 | 55.62561 | 12.64508 | 23 ft | 0 kts | 15° |